Time;durP1;ratioP1;P1;durP2;ratioP2;P2;SDS_P1;SDS_P2;PMS_P1;PMS_P2;Temp;Humidity;BMP_temperature;BMP_pressure;BME280_temperature;BME280_humidity;BME280_pressure;Samples;Min_cycle;Max_cycle;Signal;HPM_P1;HPM_P2
2023/06/10 00:02:21;;;;;;;4.93;4.53;;;25.50;52.10;;;;;;6185784;23;20527;-70
2023/06/10 00:04:47;;;;;;;5.67;5.17;;;25.50;52.10;;;;;;6185708;23;20182;-70
2023/06/10 00:07:13;;;;;;;4.83;4.43;;;25.50;52.00;;;;;;6185086;23;20155;-70
2023/06/10 00:09:38;;;;;;;5.10;4.70;;;25.50;52.00;;;;;;6186157;23;20179;-70
2023/06/10 00:12:06;;;;;;;6.10;5.20;;;25.50;52.10;;;;;;6185256;23;20152;-71
2023/06/10 00:14:32;;;;;;;4.70;4.30;;;25.50;52.10;;;;;;6184292;23;20237;-71
2023/06/10 00:16:59;;;;;;;4.97;4.57;;;25.50;52.00;;;;;;6184320;23;20379;-71
2023/06/10 00:19:25;;;;;;;4.80;4.40;;;25.50;52.00;;;;;;6159162;23;20398;-72
2023/06/10 00:21:52;;;;;;;5.00;4.60;;;25.50;52.60;;;;;;6185969;23;20390;-71
2023/06/10 00:24:18;;;;;;;4.90;4.30;;;25.50;52.00;;;;;;6185922;23;20429;-71
2023/06/10 00:26:44;;;;;;;5.00;4.60;;;25.50;52.00;;;;;;6185853;23;20386;-71
2023/06/10 00:29:10;;;;;;;5.57;5.10;;;25.50;52.10;;;;;;6185476;23;20425;-70
2023/06/10 00:31:37;;;;;;;5.03;4.60;;;25.50;52.00;;;;;;6185551;23;20375;-71
2023/06/10 00:34:03;;;;;;;4.83;4.43;;;25.50;52.10;;;;;;6185312;23;20494;-70
2023/06/10 00:36:29;;;;;;;5.00;4.60;;;25.50;52.10;;;;;;6185547;23;20464;-69
2023/06/10 00:38:54;;;;;;;4.77;4.37;;;25.50;52.10;;;;;;6185691;23;20243;-69
2023/06/10 00:41:20;;;;;;;5.30;4.90;;;25.40;52.10;;;;;;6185401;23;20407;-70
2023/06/10 00:43:45;;;;;;;4.60;4.20;;;25.50;52.10;;;;;;6185967;23;20159;-71
2023/06/10 00:46:13;;;;;;;4.93;4.43;;;25.50;52.10;;;;;;6185583;23;20154;-71
2023/06/10 00:48:40;;;;;;;4.37;4.07;;;25.50;52.10;;;;;;6185068;23;20182;-72
2023/06/10 00:51:08;;;;;;;4.50;4.20;;;25.40;52.10;;;;;;6185341;23;20371;-71
2023/06/10 00:53:36;;;;;;;4.90;4.60;;;25.50;52.20;;;;;;6185247;23;20722;-70
2023/06/10 00:56:03;;;;;;;4.53;4.13;;;25.40;52.10;;;;;;6185293;23;20429;-71
2023/06/10 00:58:28;;;;;;;4.70;4.30;;;25.40;52.10;;;;;;6185103;23;20414;-71
2023/06/10 01:00:54;;;;;;;4.30;4.00;;;25.40;52.10;;;;;;6185117;23;20371;-71
2023/06/10 01:03:20;;;;;;;4.77;4.43;;;25.40;52.20;;;;;;6158793;23;20163;-70
2023/06/10 01:06:19;;;;;;;5.20;4.70;;;25.40;52.10;;;;;;6185255;23;20199;-71
2023/06/10 01:09:05;;;;;;;4.73;4.33;;;25.40;52.10;;;;;;6104743;23;20530;-71
2023/06/10 01:11:46;;;;;;;4.90;4.50;;;25.40;52.10;;;;;;6185188;23;20471;-70
2023/06/10 01:14:14;;;;;;;4.40;4.00;;;25.40;52.20;;;;;;6184964;23;20383;-71
2023/06/10 01:16:40;;;;;;;4.83;4.43;;;25.40;52.20;;;;;;6185305;23;20842;-70
2023/06/10 01:19:07;;;;;;;4.33;3.97;;;25.40;52.20;;;;;;6185010;23;20420;-70
2023/06/10 01:21:33;;;;;;;4.73;4.43;;;25.40;52.20;;;;;;6184999;23;20378;-71
2023/06/10 01:23:59;;;;;;;4.10;3.80;;;25.40;52.20;;;;;;6185099;23;20803;-71
2023/06/10 01:26:31;;;;;;;4.57;4.17;;;25.40;52.20;;;;;;6185462;23;20498;-71
2023/06/10 01:29:18;;;;;;;5.23;4.73;;;25.40;52.20;;;;;;6184957;23;20921;-70
2023/06/10 01:31:55;;;;;;;5.10;4.70;;;25.50;52.20;;;;;;6158523;23;20405;-70
2023/06/10 01:34:23;;;;;;;4.30;3.90;;;25.40;52.20;;;;;;6184643;23;20391;-70
2023/06/10 01:36:50;;;;;;;4.70;4.30;;;25.40;52.20;;;;;;6182240;23;20413;-70
2023/06/10 01:39:18;;;;;;;4.40;4.10;;;25.40;52.20;;;;;;6182194;23;20382;-70
2023/06/10 01:41:44;;;;;;;4.83;4.43;;;25.40;52.20;;;;;;6156724;23;20406;-71
2023/06/10 01:44:10;;;;;;;4.93;4.63;;;25.40;52.20;;;;;;6181819;23;20824;-71
2023/06/10 01:46:36;;;;;;;4.80;4.40;;;25.40;52.20;;;;;;6183465;23;20148;-71
2023/06/10 01:49:01;;;;;;;4.27;3.90;;;25.40;52.20;;;;;;6184432;23;20415;-70
2023/06/10 01:51:27;;;;;;;5.03;4.60;;;25.50;52.30;;;;;;6184496;23;20182;-69
2023/06/10 01:53:53;;;;;;;4.47;4.07;;;25.40;52.20;;;;;;6184399;23;20172;-70
2023/06/10 01:56:19;;;;;;;5.10;4.60;;;25.50;52.30;;;;;;6184169;23;20611;-69
2023/06/10 01:58:46;;;;;;;5.00;4.50;;;25.40;52.20;;;;;;6184566;23;20497;-71
2023/06/10 02:01:11;;;;;;;4.50;4.17;;;25.50;52.20;;;;;;6157907;23;20387;-70
2023/06/10 02:03:37;;;;;;;4.30;4.00;;;25.40;52.20;;;;;;6184314;23;20872;-70
2023/06/10 02:06:03;;;;;;;4.60;4.30;;;25.40;52.20;;;;;;6184596;23;20180;-71
2023/06/10 02:08:29;;;;;;;4.30;4.00;;;25.40;52.20;;;;;;6184169;23;20254;-71
2023/06/10 02:10:54;;;;;;;4.10;3.80;;;25.50;52.20;;;;;;6158246;23;20159;-71
2023/06/10 02:13:20;;;;;;;4.63;4.23;;;25.40;52.20;;;;;;6184252;23;20146;-70
2023/06/10 02:15:46;;;;;;;4.03;3.73;;;25.40;52.20;;;;;;6184151;23;20256;-70
2023/06/10 02:18:11;;;;;;;3.70;3.40;;;25.40;52.20;;;;;;6184193;23;20147;-69
2023/06/10 02:20:37;;;;;;;4.40;4.00;;;25.50;52.20;;;;;;6184257;23;20234;-70
2023/06/10 02:23:03;;;;;;;4.13;3.73;;;25.50;52.20;;;;;;6184440;23;20148;-69
2023/06/10 02:25:29;;;;;;;3.80;3.50;;;25.40;52.20;;;;;;6184315;23;20701;-70
2023/06/10 02:27:55;;;;;;;3.83;3.53;;;25.50;52.30;;;;;;6184152;23;20172;-70
2023/06/10 02:30:21;;;;;;;4.33;4.00;;;25.40;52.70;;;;;;6184160;23;20140;-70
2023/06/10 02:32:47;;;;;;;4.63;4.30;;;25.40;52.20;;;;;;6184144;23;20156;-71
2023/06/10 02:35:14;;;;;;;4.50;4.10;;;25.50;52.30;;;;;;6184074;23;20499;-70
2023/06/10 02:37:40;;;;;;;4.40;4.10;;;25.40;52.20;;;;;;6183676;23;20769;-69
2023/06/10 02:40:07;;;;;;;4.20;3.90;;;25.40;52.30;;;;;;6183618;23;20751;-68
2023/06/10 02:42:32;;;;;;;3.80;3.50;;;25.40;52.20;;;;;;6157566;23;20846;-69
2023/06/10 02:44:58;;;;;;;3.93;3.60;;;25.40;52.20;;;;;;6182759;23;20425;-70
2023/06/10 02:47:24;;;;;;;4.50;4.10;;;25.40;52.20;;;;;;6183433;23;20231;-70
2023/06/10 02:49:49;;;;;;;9.07;3.77;;;25.40;52.20;;;;;;6184018;23;20160;-69
2023/06/10 02:52:15;;;;;;;3.90;3.57;;;25.40;52.20;;;;;;6184029;23;20147;-69
2023/06/10 02:54:41;;;;;;;4.03;3.73;;;25.50;52.30;;;;;;6156165;23;20262;-69
2023/06/10 02:57:07;;;;;;;3.70;3.40;;;25.40;52.20;;;;;;6183878;23;20171;-69
2023/06/10 02:59:33;;;;;;;4.20;3.90;;;25.40;52.20;;;;;;6183986;23;20148;-71
2023/06/10 03:02:01;;;;;;;3.67;3.37;;;25.50;52.20;;;;;;6157539;23;20391;-70
2023/06/10 03:04:28;;;;;;;4.00;3.70;;;25.40;52.20;;;;;;6183746;23;20168;-68
2023/06/10 03:06:54;;;;;;;3.77;3.40;;;25.40;52.20;;;;;;6158194;23;20692;-69
2023/06/10 03:09:20;;;;;;;3.87;3.57;;;25.50;52.30;;;;;;6184081;23;20437;-69
2023/06/10 03:11:46;;;;;;;3.60;3.30;;;25.50;52.30;;;;;;6183844;23;20375;-69
2023/06/10 03:14:11;;;;;;;4.00;3.70;;;25.40;52.20;;;;;;6183774;23;20391;-69
2023/06/10 03:16:40;;;;;;;4.13;3.83;;;25.40;52.20;;;;;;6184171;23;20206;-70
2023/06/10 03:19:06;;;;;;;4.20;3.57;;;25.40;52.20;;;;;;6183805;23;20155;-70
2023/06/10 03:21:31;;;;;;;3.73;3.43;;;25.40;52.20;;;;;;6183817;23;20857;-70
2023/06/10 03:23:57;;;;;;;4.10;3.70;;;25.40;52.20;;;;;;6183726;23;20402;-70
2023/06/10 03:26:23;;;;;;;3.87;3.57;;;25.40;52.20;;;;;;6183834;23;20188;-70
2023/06/10 03:28:48;;;;;;;3.57;3.27;;;25.40;52.10;;;;;;6183828;23;20259;-70
2023/06/10 03:31:16;;;;;;;4.47;4.07;;;25.40;52.10;;;;;;6183838;23;20150;-69
2023/06/10 03:33:42;;;;;;;3.60;3.40;;;25.40;52.10;;;;;;6183744;23;20145;-70
2023/06/10 03:36:08;;;;;;;3.80;3.50;;;25.40;52.10;;;;;;6183818;23;20706;-69
2023/06/10 03:38:33;;;;;;;3.50;3.20;;;25.40;52.10;;;;;;6185587;23;20478;-69
2023/06/10 03:40:59;;;;;;;4.30;3.93;;;25.40;52.10;;;;;;6185608;23;20902;-69
2023/06/10 03:43:25;;;;;;;4.20;3.80;;;25.40;52.10;;;;;;6185837;23;20239;-70
2023/06/10 03:45:51;;;;;;;4.00;3.70;;;25.40;52.10;;;;;;6185506;23;20172;-69
2023/06/10 03:48:17;;;;;;;4.03;3.73;;;25.40;52.70;;;;;;6185728;23;20426;-70
2023/06/10 03:50:42;;;;;;;3.80;3.50;;;25.40;52.10;;;;;;6185474;23;20368;-70
2023/06/10 03:53:08;;;;;;;4.07;3.77;;;25.40;52.10;;;;;;6159034;23;20167;-69
2023/06/10 03:55:33;;;;;;;4.20;3.70;;;25.40;52.10;;;;;;6185634;23;20194;-68
2023/06/10 03:57:59;;;;;;;5.03;3.87;;;25.40;52.10;;;;;;6185377;23;20207;-70
2023/06/10 04:00:25;;;;;;;3.90;3.60;;;25.40;52.20;;;;;;6185432;23;20152;-70
2023/06/10 04:02:51;;;;;;;3.80;3.50;;;25.40;52.20;;;;;;6185635;23;20156;-70
2023/06/10 04:05:20;;;;;;;3.97;3.63;;;25.40;52.20;;;;;;6185487;23;20176;-70
2023/06/10 04:07:48;;;;;;;3.57;3.27;;;25.40;52.20;;;;;;6185274;23;20505;-70
2023/06/10 04:10:14;;;;;;;3.60;3.30;;;25.40;52.30;;;;;;6159539;23;20386;-69
2023/06/10 04:12:41;;;;;;;3.67;3.37;;;25.40;52.20;;;;;;6185273;23;20467;-68
2023/06/10 04:15:07;;;;;;;3.93;3.50;;;25.40;52.20;;;;;;6158756;23;20953;-69
2023/06/10 04:17:33;;;;;;;3.73;3.43;;;25.40;52.20;;;;;;6185234;23;20461;-70
2023/06/10 04:19:58;;;;;;;3.97;3.67;;;25.40;52.30;;;;;;6185184;23;20476;-70
2023/06/10 04:22:24;;;;;;;4.10;3.80;;;25.40;52.30;;;;;;6185213;23;20491;-70
2023/06/10 04:24:50;;;;;;;4.10;3.73;;;25.40;52.30;;;;;;6185110;23;20183;-69
2023/06/10 04:27:15;;;;;;;3.87;3.57;;;25.40;52.30;;;;;;6185127;23;20486;-69
2023/06/10 04:29:41;;;;;;;3.83;3.53;;;25.40;52.30;;;;;;6185123;23;20144;-69
2023/06/10 04:32:07;;;;;;;3.47;3.17;;;25.40;52.30;;;;;;6185119;23;20222;-68
2023/06/10 04:34:34;;;;;;;4.17;3.83;;;25.40;52.30;;;;;;6184740;23;20168;-67
2023/06/10 04:36:59;;;;;;;4.30;3.90;;;25.40;52.40;;;;;;6185052;23;20152;-69
2023/06/10 04:39:25;;;;;;;3.83;3.53;;;25.40;52.30;;;;;;6185004;23;20379;-69
2023/06/10 04:41:51;;;;;;;4.10;3.80;;;25.40;52.30;;;;;;6158460;23;20626;-69
2023/06/10 04:44:18;;;;;;;3.77;3.47;;;25.40;52.30;;;;;;6184844;23;20403;-70
2023/06/10 04:46:44;;;;;;;4.30;4.00;;;25.50;52.40;;;;;;6184907;23;20156;-68
2023/06/10 04:49:10;;;;;;;4.17;3.77;;;25.50;52.30;;;;;;6184117;23;20829;-69
2023/06/10 04:51:35;;;;;;;3.73;3.43;;;25.50;52.30;;;;;;6184949;23;20447;-69
2023/06/10 04:54:04;;;;;;;3.70;3.40;;;25.50;52.30;;;;;;6184883;23;20965;-69
2023/06/10 04:56:30;;;;;;;4.53;2.97;;;25.50;52.30;;;;;;6183843;23;20238;-71
2023/06/10 04:58:57;;;;;;;3.33;3.13;;;25.50;52.30;;;;;;6184854;23;20387;-69
2023/06/10 05:01:23;;;;;;;3.53;3.33;;;25.50;52.30;;;;;;6181381;23;20375;-70
2023/06/10 05:03:48;;;;;;;3.70;3.40;;;25.50;52.30;;;;;;6183060;23;20374;-70
2023/06/10 05:06:14;;;;;;;4.33;3.93;;;25.50;52.30;;;;;;6184722;23;20379;-70
2023/06/10 05:08:40;;;;;;;4.80;4.40;;;25.50;52.40;;;;;;6184671;23;20211;-71
2023/06/10 05:11:06;;;;;;;9.50;4.87;;;25.50;52.40;;;;;;6185011;23;20156;-70
2023/06/10 05:13:31;;;;;;;6.20;4.43;;;25.50;52.60;;;;;;6184467;23;20147;-70
2023/06/10 05:15:57;;;;;;;4.37;3.97;;;25.50;52.60;;;;;;6184583;23;20394;-69
2023/06/10 05:18:23;;;;;;;4.87;4.40;;;25.50;52.60;;;;;;6184824;23;20179;-69
2023/06/10 05:20:49;;;;;;;8.53;4.60;;;25.50;52.50;;;;;;6184718;23;20163;-69
2023/06/10 05:23:14;;;;;;;6.50;4.57;;;25.50;52.50;;;;;;6184937;23;20156;-69
2023/06/10 05:25:41;;;;;;;7.10;4.63;;;25.50;52.60;;;;;;6184540;23;20490;-69
2023/06/10 05:28:09;;;;;;;5.73;4.57;;;25.50;52.60;;;;;;6184579;23;20175;-70
2023/06/10 05:30:35;;;;;;;5.20;4.43;;;25.50;52.50;;;;;;6184827;23;20434;-70
2023/06/10 05:33:01;;;;;;;5.27;4.87;;;25.50;52.40;;;;;;6184951;23;20379;-70
2023/06/10 05:35:26;;;;;;;5.17;4.63;;;25.50;52.40;;;;;;6184389;23;20387;-70
2023/06/10 05:37:52;;;;;;;7.17;4.93;;;25.50;52.40;;;;;;6184507;23;20591;-70
2023/06/10 05:40:18;;;;;;;6.20;5.40;;;25.50;52.40;;;;;;6184414;23;20486;-70
2023/06/10 05:42:43;;;;;;;5.80;5.30;;;25.50;52.40;;;;;;6184695;23;20167;-70
2023/06/10 05:45:09;;;;;;;7.03;5.03;;;25.50;52.40;;;;;;6184315;23;20171;-70
2023/06/10 05:47:35;;;;;;;6.37;5.67;;;25.50;52.40;;;;;;6184204;23;20159;-70
2023/06/10 05:50:01;;;;;;;7.80;5.60;;;25.50;52.70;;;;;;6183439;23;20375;-70
2023/06/10 05:52:26;;;;;;;5.20;4.70;;;25.50;52.50;;;;;;6184476;23;20148;-70
2023/06/10 05:54:52;;;;;;;5.60;4.73;;;25.50;52.50;;;;;;6184268;23;20172;-70
2023/06/10 05:57:17;;;;;;;6.27;5.67;;;25.50;52.60;;;;;;6184142;23;20634;-70
2023/06/10 05:59:43;;;;;;;6.20;5.60;;;25.50;52.50;;;;;;6157688;23;20303;-70
2023/06/10 06:02:08;;;;;;;6.47;5.40;;;25.50;52.50;;;;;;6184209;23;20152;-70
2023/06/10 06:04:34;;;;;;;4.97;4.53;;;25.50;52.50;;;;;;6184153;23;20247;-70
2023/06/10 06:07:00;;;;;;;7.50;6.07;;;25.50;52.50;;;;;;6184139;23;20179;-70
2023/06/10 06:09:26;;;;;;;7.67;5.37;;;25.50;52.50;;;;;;6184099;23;20199;-70
2023/06/10 06:11:51;;;;;;;6.73;5.80;;;25.60;52.50;;;;;;6184156;23;20251;-69
2023/06/10 06:14:17;;;;;;;6.40;5.80;;;25.60;52.50;;;;;;6183740;23;20175;-70
2023/06/10 06:16:42;;;;;;;5.80;5.30;;;25.50;52.50;;;;;;6184353;23;20154;-71
2023/06/10 06:19:09;;;;;;;5.77;5.07;;;25.50;52.50;;;;;;6184477;23;20171;-70
2023/06/10 06:21:35;;;;;;;6.53;6.03;;;25.50;53.10;;;;;;6157585;23;20516;-70
2023/06/10 06:24:00;;;;;;;5.83;5.20;;;25.60;52.50;;;;;;6184359;23;20382;-70
2023/06/10 06:26:26;;;;;;;7.30;5.57;;;25.50;52.50;;;;;;6184110;23;20158;-70
2023/06/10 06:28:52;;;;;;;5.60;5.10;;;25.50;52.40;;;;;;6183956;23;20171;-70
2023/06/10 06:31:17;;;;;;;5.70;5.17;;;25.60;52.50;;;;;;6184052;23;20430;-70
2023/06/10 06:33:43;;;;;;;5.43;4.90;;;25.50;52.40;;;;;;6183938;23;20247;-70
2023/06/10 06:36:09;;;;;;;5.93;5.17;;;25.60;52.50;;;;;;6183557;23;20194;-70
2023/06/10 06:38:34;;;;;;;6.63;6.00;;;25.50;52.40;;;;;;6183965;23;20197;-71
2023/06/10 06:41:02;;;;;;;6.10;5.60;;;25.60;52.50;;;;;;6183205;23;20155;-68
2023/06/10 06:43:29;;;;;;;5.83;5.20;;;25.60;52.50;;;;;;6184209;23;20156;-70
2023/06/10 06:45:56;;;;;;;6.43;5.60;;;25.60;52.50;;;;;;6182556;23;20395;-70
2023/06/10 06:48:22;;;;;;;6.00;5.13;;;25.60;52.40;;;;;;6182020;23;20769;-70
2023/06/10 06:50:47;;;;;;;6.80;6.30;;;25.60;52.40;;;;;;6182498;23;20376;-70
2023/06/10 06:53:13;;;;;;;6.70;5.50;;;25.60;52.50;;;;;;6182817;23;20219;-70
2023/06/10 06:55:38;;;;;;;6.00;5.40;;;25.60;52.50;;;;;;6183437;23;20274;-70
2023/06/10 06:58:04;;;;;;;6.00;5.50;;;25.60;52.50;;;;;;6184183;23;20652;-70
2023/06/10 07:00:30;;;;;;;6.00;5.50;;;25.60;52.50;;;;;;6157497;23;20160;-70
2023/06/10 07:02:56;;;;;;;6.40;5.80;;;25.60;52.50;;;;;;6183886;23;20499;-70
2023/06/10 07:05:23;;;;;;;7.00;5.30;;;25.50;52.40;;;;;;6183858;23;20395;-70
2023/06/10 07:07:54;;;;;;;6.53;5.93;;;25.50;52.40;;;;;;6184066;23;20450;-70
2023/06/10 07:10:21;;;;;;;6.50;5.80;;;25.50;52.40;;;;;;6183837;23;20359;-70
2023/06/10 07:12:47;;;;;;;6.43;5.33;;;25.60;52.50;;;;;;6185261;23;20371;-70
2023/06/10 07:15:13;;;;;;;6.40;5.73;;;25.60;52.50;;;;;;6185727;23;20385;-70
2023/06/10 07:17:39;;;;;;;6.20;5.70;;;25.60;52.50;;;;;;6185728;23;20413;-70
2023/06/10 07:20:05;;;;;;;6.07;5.57;;;25.50;52.40;;;;;;6185805;23;20203;-70
2023/06/10 07:22:30;;;;;;;6.47;5.73;;;25.50;52.40;;;;;;6186095;23;20591;-70
2023/06/10 07:24:57;;;;;;;6.13;5.53;;;25.60;52.50;;;;;;6185656;23;20406;-70
2023/06/10 07:27:22;;;;;;;6.10;5.60;;;25.60;52.50;;;;;;6185862;23;20183;-71
2023/06/10 07:29:48;;;;;;;5.93;5.20;;;25.50;52.50;;;;;;6185656;23;20710;-70
2023/06/10 07:32:14;;;;;;;6.23;5.57;;;25.50;52.40;;;;;;6185607;23;20171;-71
2023/06/10 07:34:39;;;;;;;6.50;6.00;;;25.60;52.50;;;;;;6185510;23;20627;-71
2023/06/10 07:37:05;;;;;;;5.83;5.33;;;25.60;52.50;;;;;;6159353;23;20198;-70
2023/06/10 07:39:31;;;;;;;5.37;4.97;;;25.60;52.50;;;;;;6185523;23;20603;-72
2023/06/10 07:41:57;;;;;;;6.27;5.47;;;25.50;52.40;;;;;;6185575;23;20151;-71
2023/06/10 07:44:23;;;;;;;5.90;5.30;;;25.50;52.40;;;;;;6185169;23;20493;-70
2023/06/10 07:46:48;;;;;;;6.43;5.83;;;25.60;52.50;;;;;;6185460;23;20178;-70
2023/06/10 07:49:14;;;;;;;5.90;5.40;;;25.60;52.50;;;;;;6185397;23;20423;-70
2023/06/10 07:51:40;;;;;;;5.83;5.33;;;25.60;52.50;;;;;;6185653;23;20144;-71
2023/06/10 07:54:05;;;;;;;5.20;4.80;;;25.60;52.50;;;;;;6185288;23;20402;-69
2023/06/10 07:56:31;;;;;;;7.00;5.77;;;25.60;52.50;;;;;;6185404;23;20251;-70
2023/06/10 07:58:57;;;;;;;6.40;5.80;;;25.60;52.50;;;;;;6185456;23;20152;-70
2023/06/10 08:01:24;;;;;;;6.87;5.00;;;25.60;52.50;;;;;;6184278;23;20238;-71
2023/06/10 08:03:50;;;;;;;5.13;4.73;;;25.60;52.50;;;;;;6185024;23;20663;-70
2023/06/10 08:06:17;;;;;;;5.53;5.10;;;25.60;52.50;;;;;;6185517;23;20383;-70
2023/06/10 08:08:43;;;;;;;5.97;5.50;;;25.60;52.50;;;;;;6185166;23;20172;-71
2023/06/10 08:11:12;;;;;;;5.97;5.47;;;25.60;52.50;;;;;;6185239;23;20382;-71
2023/06/10 08:13:38;;;;;;;5.77;5.30;;;25.60;52.50;;;;;;6185199;23;20387;-71
2023/06/10 08:16:04;;;;;;;5.63;5.13;;;25.60;52.50;;;;;;6158734;23;20403;-71
2023/06/10 08:18:29;;;;;;;6.40;5.83;;;25.60;52.50;;;;;;6185196;23;20562;-71
2023/06/10 08:20:55;;;;;;;5.90;5.50;;;25.60;52.60;;;;;;6185116;23;20428;-70
2023/06/10 08:23:21;;;;;;;6.10;5.57;;;25.60;52.60;;;;;;6184975;23;20192;-70
2023/06/10 08:25:47;;;;;;;6.50;5.70;;;25.60;52.60;;;;;;6185054;23;20677;-70
2023/06/10 08:28:12;;;;;;;5.47;5.00;;;25.60;52.60;;;;;;6185007;23;20250;-69
2023/06/10 08:30:38;;;;;;;6.40;5.90;;;25.60;52.60;;;;;;6185076;23;20259;-70
2023/06/10 08:33:03;;;;;;;5.70;5.20;;;25.60;52.60;;;;;;6185057;23;20167;-69
2023/06/10 08:35:29;;;;;;;5.60;5.10;;;25.60;52.60;;;;;;6185020;23;20203;-69
2023/06/10 08:37:55;;;;;;;6.33;5.83;;;25.60;52.60;;;;;;6185056;23;20148;-69
2023/06/10 08:40:21;;;;;;;6.10;5.50;;;25.50;52.60;;;;;;6185386;23;20156;-69
2023/06/10 08:43:00;;;;;;;5.60;5.10;;;25.60;52.60;;;;;;6184924;23;20179;-70
2023/06/10 08:45:31;;;;;;;4.67;4.27;;;25.60;52.60;;;;;;6184915;23;20178;-70
2023/06/10 08:47:57;;;;;;;5.73;5.23;;;25.60;52.60;;;;;;6184866;23;20506;-70
2023/06/10 08:50:23;;;;;;;5.27;4.87;;;25.50;52.50;;;;;;6184896;23;20379;-69
2023/06/10 08:52:53;;;;;;;5.33;4.83;;;25.60;52.60;;;;;;6185197;23;20375;-68
2023/06/10 08:55:27;;;;;;;5.80;5.30;;;25.60;52.60;;;;;;6184730;23;20182;-69
2023/06/10 08:57:53;;;;;;;5.40;5.00;;;25.60;52.60;;;;;;6184936;23;20399;-69
2023/06/10 09:00:19;;;;;;;5.30;4.90;;;25.60;52.60;;;;;;6184801;23;20736;-69
2023/06/10 09:02:46;;;;;;;5.37;4.97;;;25.50;52.50;;;;;;6184810;23;20393;-70
2023/06/10 09:05:13;;;;;;;6.33;5.10;;;25.60;52.60;;;;;;6184879;23;20407;-70
2023/06/10 09:07:39;;;;;;;5.50;5.00;;;25.50;52.50;;;;;;6184661;23;20377;-70
2023/06/10 09:10:07;;;;;;;5.40;5.00;;;25.60;52.50;;;;;;6184735;23;20379;-70
2023/06/10 09:12:34;;;;;;;5.37;4.90;;;25.60;52.50;;;;;;6184632;23;20378;-70
2023/06/10 09:15:00;;;;;;;5.23;4.83;;;25.60;52.50;;;;;;6184495;23;20395;-69
2023/06/10 09:17:26;;;;;;;5.47;5.07;;;25.60;52.60;;;;;;6158294;23;20391;-69
2023/06/10 09:19:55;;;;;;;5.73;5.03;;;25.60;52.50;;;;;;6184569;23;20426;-70
2023/06/10 09:22:23;;;;;;;5.37;4.83;;;25.60;52.50;;;;;;6184577;23;20152;-70
2023/06/10 09:24:48;;;;;;;5.87;5.33;;;25.60;52.50;;;;;;6184533;23;20440;-70
2023/06/10 09:27:14;;;;;;;5.60;5.10;;;25.60;52.50;;;;;;6184866;23;20462;-69
2023/06/10 09:29:51;;;;;;;5.43;5.03;;;25.60;52.50;;;;;;6157969;23;20494;-70
2023/06/10 09:32:18;;;;;;;5.37;4.97;;;25.60;52.50;;;;;;6158114;23;20136;-70
2023/06/10 09:34:44;;;;;;;5.30;4.80;;;25.60;52.50;;;;;;6184076;23;20761;-69
2023/06/10 09:37:12;;;;;;;6.03;5.30;;;25.60;52.50;;;;;;6184549;23;20409;-69
2023/06/10 09:39:38;;;;;;;4.90;4.50;;;25.60;52.50;;;;;;6184485;23;20843;-70
2023/06/10 09:42:18;;;;;;;5.20;4.80;;;25.60;52.50;;;;;;6184480;23;20367;-70
2023/06/10 09:44:51;;;;;;;5.43;5.03;;;25.60;52.50;;;;;;6184862;23;20898;-69
2023/06/10 09:47:21;;;;;;;5.67;5.13;;;25.60;52.50;;;;;;6184398;23;20842;-69
2023/06/10 09:49:46;;;;;;;5.83;5.33;;;25.60;52.50;;;;;;6157928;23;20434;-69
2023/06/10 09:52:12;;;;;;;5.30;4.90;;;25.60;52.60;;;;;;6184782;23;20380;-69
2023/06/10 09:54:38;;;;;;;5.17;4.77;;;25.60;52.50;;;;;;6184426;23;20230;-70
2023/06/10 09:57:07;;;;;;;5.77;5.30;;;25.60;52.50;;;;;;6184317;23;20159;-70
2023/06/10 09:59:34;;;;;;;6.20;5.33;;;25.60;52.50;;;;;;6184073;23;20478;-70
2023/06/10 10:02:00;;;;;;;5.30;4.80;;;25.60;52.50;;;;;;6184389;23;20441;-70
2023/06/10 10:04:26;;;;;;;5.20;4.70;;;25.60;52.60;;;;;;6157768;23;20802;-69
2023/06/10 10:06:52;;;;;;;5.27;4.87;;;25.60;52.70;;;;;;6158109;23;20382;-69
2023/06/10 10:09:18;;;;;;;6.57;6.00;;;25.50;52.50;;;;;;6184451;23;20754;-69
2023/06/10 10:11:44;;;;;;;4.93;4.53;;;25.60;52.60;;;;;;6184207;23;20379;-70
2023/06/10 10:14:13;;;;;;;6.30;5.80;;;25.60;52.60;;;;;;6184447;23;20251;-70
2023/06/10 10:16:41;;;;;;;5.27;4.87;;;25.60;53.10;;;;;;6182750;23;20383;-70
2023/06/10 10:19:25;;;;;;;5.13;4.63;;;25.50;52.50;;;;;;6184054;23;20382;-70
2023/06/10 10:21:54;;;;;;;5.13;4.70;;;25.50;52.50;;;;;;6184483;23;20370;-70
2023/06/10 10:24:28;;;;;;;5.57;4.90;;;25.50;52.50;;;;;;6184174;23;20775;-69
2023/06/10 10:26:57;;;;;;;5.43;4.93;;;25.50;52.50;;;;;;6184133;23;20371;-70
2023/06/10 10:29:36;;;;;;;5.17;4.77;;;25.50;52.60;;;;;;6184416;23;20415;-69
2023/06/10 10:32:02;;;;;;;5.40;5.00;;;25.60;52.60;;;;;;6184400;23;20406;-70
2023/06/10 10:34:40;;;;;;;4.73;4.33;;;25.60;52.60;;;;;;6184186;23;20391;-70
2023/06/10 10:37:05;;;;;;;4.93;4.53;;;25.50;52.50;;;;;;6184078;23;20414;-69
2023/06/10 10:39:34;;;;;;;4.73;4.33;;;25.50;52.50;;;;;;6184045;23;20374;-69
2023/06/10 10:42:00;;;;;;;4.90;4.60;;;25.50;52.50;;;;;;6184040;23;20151;-68
2023/06/10 10:44:26;;;;;;;4.70;4.30;;;25.50;52.50;;;;;;6184027;23;20406;-70
2023/06/10 10:46:53;;;;;;;5.70;5.20;;;25.60;52.60;;;;;;6185524;23;20398;-69
2023/06/10 10:49:22;;;;;;;4.70;4.40;;;25.60;52.50;;;;;;6186066;23;20418;-69
2023/06/10 10:52:01;;;;;;;5.17;4.67;;;25.60;52.50;;;;;;6186144;23;20378;-70
2023/06/10 10:54:35;;;;;;;4.50;4.10;;;25.60;52.50;;;;;;6185902;23;20402;-69
2023/06/10 10:57:28;;;;;;;5.03;4.63;;;25.60;52.50;;;;;;6159490;23;20433;-69
2023/06/10 11:00:04;;;;;;;5.27;4.87;;;25.60;52.50;;;;;;6181697;23;20453;-69
2023/06/10 11:02:43;;;;;;;4.70;4.30;;;25.60;52.50;;;;;;6185924;23;20363;-69
2023/06/10 11:05:29;;;;;;;5.83;5.33;;;25.60;53.10;;;;;;6186187;23;20441;-69
2023/06/10 11:07:56;;;;;;;5.00;4.60;;;25.60;52.50;;;;;;6185475;23;20917;-69
2023/06/10 11:10:38;;;;;;;4.60;4.30;;;25.60;52.50;;;;;;6159312;23;20383;-70
2023/06/10 11:13:13;;;;;;;5.03;4.63;;;25.60;52.50;;;;;;6185711;23;20450;-70
2023/06/10 11:15:46;;;;;;;4.63;4.23;;;25.60;52.50;;;;;;6185794;23;20390;-69
2023/06/10 11:18:15;;;;;;;5.30;4.90;;;25.60;52.60;;;;;;6185770;23;20360;-69
2023/06/10 11:20:49;;;;;;;5.03;4.63;;;25.60;52.60;;;;;;6185696;23;20374;-69
2023/06/10 11:23:27;;;;;;;4.60;4.13;;;25.60;52.50;;;;;;6185852;23;20748;-69
2023/06/10 11:26:13;;;;;;;4.70;4.30;;;25.60;52.50;;;;;;6185997;23;20807;-69
2023/06/10 11:28:40;;;;;;;4.83;4.47;;;25.60;52.60;;;;;;6185828;23;20767;-69
2023/06/10 11:31:06;;;;;;;4.30;4.00;;;25.60;52.60;;;;;;6185636;23;20375;-69
2023/06/10 11:33:32;;;;;;;4.70;4.30;;;25.60;52.60;;;;;;6185592;23;20378;-70
2023/06/10 11:35:58;;;;;;;4.93;4.63;;;25.60;52.60;;;;;;6185592;23;20183;-70
2023/06/10 11:38:24;;;;;;;5.27;4.80;;;25.60;52.60;;;;;;6159628;23;20402;-69
2023/06/10 11:40:53;;;;;;;4.63;4.23;;;25.60;52.60;;;;;;6186023;23;20375;-69
2023/06/10 11:43:20;;;;;;;5.37;4.97;;;25.60;52.60;;;;;;6185866;23;20414;-69
2023/06/10 11:45:46;;;;;;;5.10;4.60;;;25.60;52.60;;;;;;6185419;23;20391;-69
2023/06/10 11:48:13;;;;;;;4.40;4.10;;;25.60;52.70;;;;;;6185469;23;20429;-69
2023/06/10 11:50:41;;;;;;;4.90;4.60;;;25.60;52.60;;;;;;6185495;23;20380;-69
2023/06/10 11:53:08;;;;;;;4.70;4.30;;;25.60;52.60;;;;;;6185539;23;20450;-69
2023/06/10 11:55:45;;;;;;;4.67;4.27;;;25.60;52.60;;;;;;6185232;23;20418;-70
2023/06/10 11:58:18;;;;;;;4.80;4.40;;;25.60;52.60;;;;;;6185092;23;20379;-69
2023/06/10 12:00:58;;;;;;;4.47;4.13;;;25.60;52.60;;;;;;6185304;23;20398;-69
2023/06/10 12:03:27;;;;;;;5.23;4.73;;;25.60;52.60;;;;;;6185421;23;20372;-69
2023/06/10 12:06:04;;;;;;;4.00;3.70;;;25.60;52.60;;;;;;6185264;23;20461;-69
2023/06/10 12:08:30;;;;;;;4.23;3.83;;;25.60;52.70;;;;;;6185268;23;20460;-69
2023/06/10 12:10:56;;;;;;;4.80;4.27;;;25.60;52.60;;;;;;6185309;23;20371;-69
2023/06/10 12:13:26;;;;;;;4.23;3.93;;;25.60;52.60;;;;;;6185273;23;20842;-69
2023/06/10 12:15:51;;;;;;;4.37;3.97;;;25.60;52.60;;;;;;6185126;23;20383;-69
2023/06/10 12:18:21;;;;;;;4.40;4.10;;;25.60;52.60;;;;;;6158884;23;20449;-69
2023/06/10 12:20:48;;;;;;;4.67;4.27;;;25.60;52.60;;;;;;6159133;23;20167;-70
2023/06/10 12:23:14;;;;;;;4.43;4.03;;;25.60;52.60;;;;;;6185479;23;20379;-70
2023/06/10 12:25:53;;;;;;;4.33;4.03;;;25.60;53.20;;;;;;6185365;23;20395;-70
2023/06/10 12:28:22;;;;;;;5.10;4.70;;;25.60;52.60;;;;;;6184901;23;20411;-70
2023/06/10 12:30:48;;;;;;;4.37;3.97;;;25.60;52.60;;;;;;6185046;23;20715;-70
2023/06/10 12:33:21;;;;;;;5.10;4.70;;;25.60;52.60;;;;;;6185157;23;20364;-70
2023/06/10 12:35:51;;;;;;;4.33;4.00;;;25.60;52.60;;;;;;6185065;23;20206;-70
2023/06/10 12:38:29;;;;;;;4.40;4.10;;;25.60;52.60;;;;;;6158580;23;20391;-70
2023/06/10 12:41:01;;;;;;;4.47;4.17;;;25.60;52.60;;;;;;6184985;23;20387;-70
2023/06/10 12:43:27;;;;;;;5.00;4.60;;;25.60;52.60;;;;;;6185438;23;20429;-70
2023/06/10 12:45:54;;;;;;;3.90;3.60;;;25.60;52.60;;;;;;6184827;23;20434;-70
2023/06/10 12:48:21;;;;;;;4.20;3.83;;;25.60;52.70;;;;;;6184821;23;20415;-70
2023/06/10 12:50:58;;;;;;;4.87;4.53;;;25.60;52.60;;;;;;6158533;23;20788;-70